sensor_id;sensor_type;location;lat;lon;timestamp;P1;durP1;ratioP1;P2;durP2;ratioP2
38208;SDS011;24016;52.102;11.584;2023-02-23T00:00:37;31.20;;;10.32;;
38208;SDS011;24016;52.102;11.584;2023-02-23T00:03:02;27.02;;;9.75;;
38208;SDS011;24016;52.102;11.584;2023-02-23T00:05:28;22.75;;;10.20;;
38208;SDS011;24016;52.102;11.584;2023-02-23T00:07:56;22.40;;;11.00;;
38208;SDS011;24016;52.102;11.584;2023-02-23T00:10:22;21.02;;;9.63;;
38208;SDS011;24016;52.102;11.584;2023-02-23T00:12:54;22.70;;;10.57;;
38208;SDS011;24016;52.102;11.584;2023-02-23T00:15:24;19.42;;;10.20;;
38208;SDS011;24016;52.102;11.584;2023-02-23T00:17:53;21.02;;;9.73;;
38208;SDS011;24016;52.102;11.584;2023-02-23T00:20:20;21.05;;;9.82;;
38208;SDS011;24016;52.102;11.584;2023-02-23T00:22:51;22.63;;;10.10;;
38208;SDS011;24016;52.102;11.584;2023-02-23T00:25:21;22.60;;;10.32;;
38208;SDS011;24016;52.102;11.584;2023-02-23T00:27:47;25.10;;;10.07;;
38208;SDS011;24016;52.102;11.584;2023-02-23T00:30:14;18.30;;;9.45;;
38208;SDS011;24016;52.102;11.584;2023-02-23T00:32:44;22.73;;;10.32;;
38208;SDS011;24016;52.102;11.584;2023-02-23T00:35:10;23.35;;;9.65;;
38208;SDS011;24016;52.102;11.584;2023-02-23T00:37:45;28.30;;;10.65;;
38208;SDS011;24016;52.102;11.584;2023-02-23T00:40:12;24.45;;;9.50;;
38208;SDS011;24016;52.102;11.584;2023-02-23T00:42:40;22.98;;;9.15;;
38208;SDS011;24016;52.102;11.584;2023-02-23T00:45:06;26.38;;;10.00;;
38208;SDS011;24016;52.102;11.584;2023-02-23T00:47:35;25.77;;;10.10;;
38208;SDS011;24016;52.102;11.584;2023-02-23T00:50:02;25.98;;;10.90;;
38208;SDS011;24016;52.102;11.584;2023-02-23T00:52:29;23.48;;;10.43;;
38208;SDS011;24016;52.102;11.584;2023-02-23T00:54:55;23.83;;;11.20;;
38208;SDS011;24016;52.102;11.584;2023-02-23T00:57:20;19.52;;;10.60;;
38208;SDS011;24016;52.102;11.584;2023-02-23T00:59:46;18.95;;;9.98;;
38208;SDS011;24016;52.102;11.584;2023-02-23T01:02:12;23.45;;;10.30;;
38208;SDS011;24016;52.102;11.584;2023-02-23T01:04:37;22.20;;;9.98;;
38208;SDS011;24016;52.102;11.584;2023-02-23T01:07:03;23.27;;;10.98;;
38208;SDS011;24016;52.102;11.584;2023-02-23T01:09:30;21.92;;;9.98;;
38208;SDS011;24016;52.102;11.584;2023-02-23T01:11:56;25.50;;;11.43;;
38208;SDS011;24016;52.102;11.584;2023-02-23T01:14:25;24.55;;;10.68;;
38208;SDS011;24016;52.102;11.584;2023-02-23T01:16:52;20.60;;;9.80;;
38208;SDS011;24016;52.102;11.584;2023-02-23T01:19:20;31.73;;;11.70;;
38208;SDS011;24016;52.102;11.584;2023-02-23T01:21:46;23.85;;;11.40;;
38208;SDS011;24016;52.102;11.584;2023-02-23T01:24:12;26.02;;;11.63;;
38208;SDS011;24016;52.102;11.584;2023-02-23T01:26:38;24.70;;;11.50;;
38208;SDS011;24016;52.102;11.584;2023-02-23T01:29:07;25.98;;;11.48;;
38208;SDS011;24016;52.102;11.584;2023-02-23T01:31:39;35.35;;;11.05;;
38208;SDS011;24016;52.102;11.584;2023-02-23T01:34:06;27.80;;;11.55;;
38208;SDS011;24016;52.102;11.584;2023-02-23T01:36:34;22.02;;;11.40;;
38208;SDS011;24016;52.102;11.584;2023-02-23T01:39:01;26.55;;;11.73;;
38208;SDS011;24016;52.102;11.584;2023-02-23T01:41:30;24.45;;;11.48;;
38208;SDS011;24016;52.102;11.584;2023-02-23T01:46:24;24.52;;;12.40;;
38208;SDS011;24016;52.102;11.584;2023-02-23T01:48:50;23.67;;;12.02;;
38208;SDS011;24016;52.102;11.584;2023-02-23T01:51:17;24.67;;;11.95;;
38208;SDS011;24016;52.102;11.584;2023-02-23T01:53:49;21.47;;;11.63;;
38208;SDS011;24016;52.102;11.584;2023-02-23T01:56:21;27.45;;;12.25;;
38208;SDS011;24016;52.102;11.584;2023-02-23T01:58:52;33.38;;;12.35;;
38208;SDS011;24016;52.102;11.584;2023-02-23T02:01:21;29.50;;;12.30;;
38208;SDS011;24016;52.102;11.584;2023-02-23T02:03:47;29.23;;;11.98;;
38208;SDS011;24016;52.102;11.584;2023-02-23T02:06:17;23.23;;;11.63;;
38208;SDS011;24016;52.102;11.584;2023-02-23T02:08:46;25.08;;;11.65;;
38208;SDS011;24016;52.102;11.584;2023-02-23T02:11:15;32.63;;;13.80;;
38208;SDS011;24016;52.102;11.584;2023-02-23T02:14:08;35.75;;;14.15;;
38208;SDS011;24016;52.102;11.584;2023-02-23T02:16:59;32.15;;;11.65;;
38208;SDS011;24016;52.102;11.584;2023-02-23T02:29:04;30.00;;;13.98;;
38208;SDS011;24016;52.102;11.584;2023-02-23T02:40:06;32.47;;;13.35;;
38208;SDS011;24016;52.102;11.584;2023-02-23T02:42:50;29.00;;;13.07;;
38208;SDS011;24016;52.102;11.584;2023-02-23T02:45:39;26.45;;;13.90;;
38208;SDS011;24016;52.102;11.584;2023-02-23T02:48:28;27.38;;;14.05;;
38208;SDS011;24016;52.102;11.584;2023-02-23T02:56:45;30.33;;;13.80;;
38208;SDS011;24016;52.102;11.584;2023-02-23T02:59:14;29.30;;;14.15;;
38208;SDS011;24016;52.102;11.584;2023-02-23T03:02:00;28.92;;;13.85;;
38208;SDS011;24016;52.102;11.584;2023-02-23T03:04:46;31.50;;;13.95;;
38208;SDS011;24016;52.102;11.584;2023-02-23T03:07:35;31.88;;;13.93;;
38208;SDS011;24016;52.102;11.584;2023-02-23T03:10:28;32.45;;;14.13;;
38208;SDS011;24016;52.102;11.584;2023-02-23T03:13:41;36.90;;;15.98;;
38208;SDS011;24016;52.102;11.584;2023-02-23T03:19:25;31.92;;;14.57;;
38208;SDS011;24016;52.102;11.584;2023-02-23T03:22:16;36.78;;;15.80;;
38208;SDS011;24016;52.102;11.584;2023-02-23T03:25:08;40.60;;;15.88;;
38208;SDS011;24016;52.102;11.584;2023-02-23T03:30:57;31.33;;;16.00;;
38208;SDS011;24016;52.102;11.584;2023-02-23T03:37:28;39.63;;;16.02;;
38208;SDS011;24016;52.102;11.584;2023-02-23T03:40:25;32.05;;;15.48;;
38208;SDS011;24016;52.102;11.584;2023-02-23T03:43:15;33.55;;;14.80;;
38208;SDS011;24016;52.102;11.584;2023-02-23T03:46:02;26.58;;;14.48;;
38208;SDS011;24016;52.102;11.584;2023-02-23T03:48:50;40.17;;;16.45;;
38208;SDS011;24016;52.102;11.584;2023-02-23T03:51:38;36.72;;;15.82;;
38208;SDS011;24016;52.102;11.584;2023-02-23T03:54:35;32.35;;;15.32;;
38208;SDS011;24016;52.102;11.584;2023-02-23T03:57:23;36.58;;;16.67;;
38208;SDS011;24016;52.102;11.584;2023-02-23T04:00:11;38.63;;;16.02;;
38208;SDS011;24016;52.102;11.584;2023-02-23T04:03:00;30.50;;;15.32;;
38208;SDS011;24016;52.102;11.584;2023-02-23T04:05:47;31.45;;;15.25;;
38208;SDS011;24016;52.102;11.584;2023-02-23T04:08:35;35.92;;;17.25;;
38208;SDS011;24016;52.102;11.584;2023-02-23T04:11:30;29.73;;;14.95;;
38208;SDS011;24016;52.102;11.584;2023-02-23T04:14:23;27.83;;;15.18;;
38208;SDS011;24016;52.102;11.584;2023-02-23T04:16:53;36.97;;;16.80;;
38208;SDS011;24016;52.102;11.584;2023-02-23T04:19:19;27.98;;;14.55;;
38208;SDS011;24016;52.102;11.584;2023-02-23T04:21:44;37.83;;;15.57;;
38208;SDS011;24016;52.102;11.584;2023-02-23T04:24:10;31.25;;;15.35;;
38208;SDS011;24016;52.102;11.584;2023-02-23T04:26:35;37.63;;;15.95;;
38208;SDS011;24016;52.102;11.584;2023-02-23T04:29:01;27.58;;;15.98;;
38208;SDS011;24016;52.102;11.584;2023-02-23T04:31:26;33.03;;;15.43;;
38208;SDS011;24016;52.102;11.584;2023-02-23T04:33:52;33.53;;;15.98;;
38208;SDS011;24016;52.102;11.584;2023-02-23T04:36:17;40.10;;;16.90;;
38208;SDS011;24016;52.102;11.584;2023-02-23T04:38:43;38.95;;;16.75;;
38208;SDS011;24016;52.102;11.584;2023-02-23T04:41:08;37.05;;;16.30;;
38208;SDS011;24016;52.102;11.584;2023-02-23T04:43:34;33.60;;;15.60;;
38208;SDS011;24016;52.102;11.584;2023-02-23T04:45:59;32.10;;;15.98;;
38208;SDS011;24016;52.102;11.584;2023-02-23T04:48:25;36.72;;;15.00;;
38208;SDS011;24016;52.102;11.584;2023-02-23T04:50:52;34.00;;;16.05;;
38208;SDS011;24016;52.102;11.584;2023-02-23T04:53:18;35.97;;;16.35;;
38208;SDS011;24016;52.102;11.584;2023-02-23T04:55:44;35.03;;;16.35;;
38208;SDS011;24016;52.102;11.584;2023-02-23T04:58:11;36.95;;;17.17;;
38208;SDS011;24016;52.102;11.584;2023-02-23T05:00:39;32.33;;;16.38;;
38208;SDS011;24016;52.102;11.584;2023-02-23T05:03:05;43.63;;;18.25;;
38208;SDS011;24016;52.102;11.584;2023-02-23T05:05:31;37.05;;;16.10;;
38208;SDS011;24016;52.102;11.584;2023-02-23T05:07:56;37.75;;;16.48;;
38208;SDS011;24016;52.102;11.584;2023-02-23T05:10:22;35.55;;;16.63;;
38208;SDS011;24016;52.102;11.584;2023-02-23T05:12:48;35.38;;;17.10;;
38208;SDS011;24016;52.102;11.584;2023-02-23T05:15:13;38.65;;;17.00;;
38208;SDS011;24016;52.102;11.584;2023-02-23T05:17:39;40.83;;;18.13;;
38208;SDS011;24016;52.102;11.584;2023-02-23T05:20:05;38.28;;;18.45;;
38208;SDS011;24016;52.102;11.584;2023-02-23T05:22:33;40.35;;;18.45;;
38208;SDS011;24016;52.102;11.584;2023-02-23T05:24:58;36.03;;;18.63;;
38208;SDS011;24016;52.102;11.584;2023-02-23T05:27:24;37.08;;;19.13;;
38208;SDS011;24016;52.102;11.584;2023-02-23T05:29:50;45.33;;;19.10;;
38208;SDS011;24016;52.102;11.584;2023-02-23T05:32:15;42.05;;;20.63;;
38208;SDS011;24016;52.102;11.584;2023-02-23T05:34:41;36.92;;;19.00;;
38208;SDS011;24016;52.102;11.584;2023-02-23T05:37:06;47.20;;;21.08;;
38208;SDS011;24016;52.102;11.584;2023-02-23T05:39:32;45.80;;;20.75;;
38208;SDS011;24016;52.102;11.584;2023-02-23T05:41:57;45.53;;;20.25;;
38208;SDS011;24016;52.102;11.584;2023-02-23T05:44:23;47.65;;;20.40;;
38208;SDS011;24016;52.102;11.584;2023-02-23T05:46:49;41.33;;;20.48;;
38208;SDS011;24016;52.102;11.584;2023-02-23T05:49:14;43.92;;;20.27;;
38208;SDS011;24016;52.102;11.584;2023-02-23T05:51:40;36.28;;;17.83;;
38208;SDS011;24016;52.102;11.584;2023-02-23T05:54:05;39.78;;;19.38;;
38208;SDS011;24016;52.102;11.584;2023-02-23T05:56:31;47.30;;;20.00;;
38208;SDS011;24016;52.102;11.584;2023-02-23T05:58:57;47.65;;;21.58;;
38208;SDS011;24016;52.102;11.584;2023-02-23T06:01:23;47.83;;;24.17;;
38208;SDS011;24016;52.102;11.584;2023-02-23T06:03:50;44.08;;;21.73;;
38208;SDS011;24016;52.102;11.584;2023-02-23T06:06:16;44.17;;;19.90;;
38208;SDS011;24016;52.102;11.584;2023-02-23T06:08:42;41.63;;;20.25;;
38208;SDS011;24016;52.102;11.584;2023-02-23T06:11:07;38.28;;;20.42;;
38208;SDS011;24016;52.102;11.584;2023-02-23T06:13:33;39.90;;;18.80;;
38208;SDS011;24016;52.102;11.584;2023-02-23T06:15:59;37.72;;;19.40;;
38208;SDS011;24016;52.102;11.584;2023-02-23T06:18:25;39.17;;;19.30;;
38208;SDS011;24016;52.102;11.584;2023-02-23T06:20:51;34.78;;;18.85;;
38208;SDS011;24016;52.102;11.584;2023-02-23T06:23:17;38.55;;;18.25;;
38208;SDS011;24016;52.102;11.584;2023-02-23T06:25:43;33.97;;;18.48;;
38208;SDS011;24016;52.102;11.584;2023-02-23T06:28:10;35.30;;;19.15;;
38208;SDS011;24016;52.102;11.584;2023-02-23T06:30:35;35.50;;;18.85;;
38208;SDS011;24016;52.102;11.584;2023-02-23T06:33:02;37.08;;;18.52;;
38208;SDS011;24016;52.102;11.584;2023-02-23T06:35:29;35.40;;;18.35;;
38208;SDS011;24016;52.102;11.584;2023-02-23T06:37:54;36.45;;;19.85;;
38208;SDS011;24016;52.102;11.584;2023-02-23T06:40:20;39.40;;;20.33;;
38208;SDS011;24016;52.102;11.584;2023-02-23T06:42:46;36.53;;;18.90;;
38208;SDS011;24016;52.102;11.584;2023-02-23T06:45:12;31.80;;;18.45;;
38208;SDS011;24016;52.102;11.584;2023-02-23T06:47:38;39.30;;;20.63;;
38208;SDS011;24016;52.102;11.584;2023-02-23T06:50:05;34.97;;;18.48;;
38208;SDS011;24016;52.102;11.584;2023-02-23T06:52:34;31.30;;;19.08;;
38208;SDS011;24016;52.102;11.584;2023-02-23T06:54:59;37.50;;;19.48;;
38208;SDS011;24016;52.102;11.584;2023-02-23T06:57:25;37.33;;;21.10;;
38208;SDS011;24016;52.102;11.584;2023-02-23T06:59:50;31.52;;;19.00;;
38208;SDS011;24016;52.102;11.584;2023-02-23T07:02:16;33.85;;;19.52;;
38208;SDS011;24016;52.102;11.584;2023-02-23T07:04:41;31.67;;;19.75;;
38208;SDS011;24016;52.102;11.584;2023-02-23T07:07:07;32.80;;;19.42;;
38208;SDS011;24016;52.102;11.584;2023-02-23T07:09:33;35.05;;;19.85;;
38208;SDS011;24016;52.102;11.584;2023-02-23T07:11:58;31.15;;;19.48;;
38208;SDS011;24016;52.102;11.584;2023-02-23T07:14:24;34.00;;;19.75;;
38208;SDS011;24016;52.102;11.584;2023-02-23T07:16:49;32.22;;;18.88;;
38208;SDS011;24016;52.102;11.584;2023-02-23T07:19:15;31.05;;;19.30;;
38208;SDS011;24016;52.102;11.584;2023-02-23T07:21:40;33.38;;;19.08;;
38208;SDS011;24016;52.102;11.584;2023-02-23T07:24:06;28.30;;;18.75;;
38208;SDS011;24016;52.102;11.584;2023-02-23T07:26:32;29.52;;;17.40;;
38208;SDS011;24016;52.102;11.584;2023-02-23T07:28:58;28.58;;;18.92;;
38208;SDS011;24016;52.102;11.584;2023-02-23T07:31:24;27.65;;;17.60;;
38208;SDS011;24016;52.102;11.584;2023-02-23T07:33:50;32.22;;;18.40;;
38208;SDS011;24016;52.102;11.584;2023-02-23T07:36:18;26.98;;;17.27;;
38208;SDS011;24016;52.102;11.584;2023-02-23T07:38:45;28.80;;;18.17;;
38208;SDS011;24016;52.102;11.584;2023-02-23T07:41:10;23.48;;;16.63;;
38208;SDS011;24016;52.102;11.584;2023-02-23T07:43:36;26.52;;;16.77;;
38208;SDS011;24016;52.102;11.584;2023-02-23T07:46:01;24.52;;;15.93;;
38208;SDS011;24016;52.102;11.584;2023-02-23T07:48:27;20.75;;;15.13;;
38208;SDS011;24016;52.102;11.584;2023-02-23T07:50:52;23.90;;;15.30;;
38208;SDS011;24016;52.102;11.584;2023-02-23T07:53:18;20.33;;;14.07;;
38208;SDS011;24016;52.102;11.584;2023-02-23T07:55:44;23.42;;;15.30;;
38208;SDS011;24016;52.102;11.584;2023-02-23T07:58:09;22.65;;;15.80;;
38208;SDS011;24016;52.102;11.584;2023-02-23T08:00:37;21.13;;;15.35;;
38208;SDS011;24016;52.102;11.584;2023-02-23T08:03:04;20.15;;;15.18;;
38208;SDS011;24016;52.102;11.584;2023-02-23T08:05:30;19.70;;;14.60;;
38208;SDS011;24016;52.102;11.584;2023-02-23T08:07:56;21.40;;;15.55;;
38208;SDS011;24016;52.102;11.584;2023-02-23T08:10:22;20.85;;;14.75;;
38208;SDS011;24016;52.102;11.584;2023-02-23T08:12:48;22.85;;;14.73;;
38208;SDS011;24016;52.102;11.584;2023-02-23T08:15:13;22.45;;;15.23;;
38208;SDS011;24016;52.102;11.584;2023-02-23T08:17:39;22.60;;;15.10;;
38208;SDS011;24016;52.102;11.584;2023-02-23T08:20:05;19.98;;;15.38;;
38208;SDS011;24016;52.102;11.584;2023-02-23T08:22:32;21.40;;;15.60;;
38208;SDS011;24016;52.102;11.584;2023-02-23T08:24:57;20.45;;;16.08;;
38208;SDS011;24016;52.102;11.584;2023-02-23T08:27:23;23.80;;;17.45;;
38208;SDS011;24016;52.102;11.584;2023-02-23T08:29:49;23.85;;;16.23;;
38208;SDS011;24016;52.102;11.584;2023-02-23T08:32:18;23.52;;;16.73;;
38208;SDS011;24016;52.102;11.584;2023-02-23T08:34:45;20.75;;;16.50;;
38208;SDS011;24016;52.102;11.584;2023-02-23T08:37:10;25.83;;;17.05;;
38208;SDS011;24016;52.102;11.584;2023-02-23T08:39:36;26.23;;;17.10;;
38208;SDS011;24016;52.102;11.584;2023-02-23T08:42:02;25.42;;;17.35;;
38208;SDS011;24016;52.102;11.584;2023-02-23T08:44:28;25.70;;;18.00;;
38208;SDS011;24016;52.102;11.584;2023-02-23T08:46:54;27.33;;;20.35;;
38208;SDS011;24016;52.102;11.584;2023-02-23T08:49:22;30.20;;;22.58;;
38208;SDS011;24016;52.102;11.584;2023-02-23T08:51:48;48.33;;;32.88;;
38208;SDS011;24016;52.102;11.584;2023-02-23T08:54:14;63.25;;;43.30;;
38208;SDS011;24016;52.102;11.584;2023-02-23T08:56:40;60.95;;;42.20;;
38208;SDS011;24016;52.102;11.584;2023-02-23T08:59:06;63.85;;;45.25;;
38208;SDS011;24016;52.102;11.584;2023-02-23T09:01:32;64.43;;;43.88;;
38208;SDS011;24016;52.102;11.584;2023-02-23T09:03:58;58.60;;;42.58;;
38208;SDS011;24016;52.102;11.584;2023-02-23T09:06:24;57.35;;;42.10;;
38208;SDS011;24016;52.102;11.584;2023-02-23T09:08:51;53.53;;;41.35;;
38208;SDS011;24016;52.102;11.584;2023-02-23T09:11:18;56.42;;;41.03;;
38208;SDS011;24016;52.102;11.584;2023-02-23T09:13:44;55.42;;;39.10;;
38208;SDS011;24016;52.102;11.584;2023-02-23T09:16:09;61.47;;;41.22;;
38208;SDS011;24016;52.102;11.584;2023-02-23T09:18:35;53.53;;;39.65;;
38208;SDS011;24016;52.102;11.584;2023-02-23T09:21:01;51.83;;;40.75;;
38208;SDS011;24016;52.102;11.584;2023-02-23T09:23:32;59.67;;;41.78;;
38208;SDS011;24016;52.102;11.584;2023-02-23T09:26:05;57.22;;;41.63;;
38208;SDS011;24016;52.102;11.584;2023-02-23T09:28:32;63.42;;;42.20;;
38208;SDS011;24016;52.102;11.584;2023-02-23T09:31:06;53.85;;;39.90;;
38208;SDS011;24016;52.102;11.584;2023-02-23T09:33:33;52.78;;;38.50;;
38208;SDS011;24016;52.102;11.584;2023-02-23T09:35:58;54.95;;;41.47;;
38208;SDS011;24016;52.102;11.584;2023-02-23T09:38:24;51.45;;;39.30;;
38208;SDS011;24016;52.102;11.584;2023-02-23T09:40:50;52.38;;;40.33;;
38208;SDS011;24016;52.102;11.584;2023-02-23T09:43:21;56.50;;;40.25;;
38208;SDS011;24016;52.102;11.584;2023-02-23T09:48:24;56.75;;;43.33;;
38208;SDS011;24016;52.102;11.584;2023-02-23T09:50:52;57.60;;;42.55;;
38208;SDS011;24016;52.102;11.584;2023-02-23T09:53:30;62.10;;;43.42;;
38208;SDS011;24016;52.102;11.584;2023-02-23T09:58:53;62.75;;;44.00;;
38208;SDS011;24016;52.102;11.584;2023-02-23T10:06:53;63.58;;;43.72;;
38208;SDS011;24016;52.102;11.584;2023-02-23T10:09:49;59.92;;;43.53;;
38208;SDS011;24016;52.102;11.584;2023-02-23T10:15:38;60.90;;;45.05;;
38208;SDS011;24016;52.102;11.584;2023-02-23T10:24:02;62.45;;;45.25;;
38208;SDS011;24016;52.102;11.584;2023-02-23T10:26:42;59.03;;;42.60;;
38208;SDS011;24016;52.102;11.584;2023-02-23T10:32:17;62.53;;;45.60;;
38208;SDS011;24016;52.102;11.584;2023-02-23T10:34:54;61.05;;;44.58;;
38208;SDS011;24016;52.102;11.584;2023-02-23T10:37:20;60.88;;;46.00;;
38208;SDS011;24016;52.102;11.584;2023-02-23T10:39:46;58.40;;;43.92;;
38208;SDS011;24016;52.102;11.584;2023-02-23T10:42:22;61.58;;;42.72;;
38208;SDS011;24016;52.102;11.584;2023-02-23T10:44:52;61.15;;;44.33;;
38208;SDS011;24016;52.102;11.584;2023-02-23T10:47:22;61.35;;;45.00;;
38208;SDS011;24016;52.102;11.584;2023-02-23T10:49:51;60.35;;;44.00;;
38208;SDS011;24016;52.102;11.584;2023-02-23T10:52:25;70.18;;;45.72;;
38208;SDS011;24016;52.102;11.584;2023-02-23T10:54:54;63.58;;;45.08;;
38208;SDS011;24016;52.102;11.584;2023-02-23T10:57:27;67.35;;;46.33;;
38208;SDS011;24016;52.102;11.584;2023-02-23T11:00:05;67.90;;;47.05;;
38208;SDS011;24016;52.102;11.584;2023-02-23T11:02:40;68.30;;;46.40;;
38208;SDS011;24016;52.102;11.584;2023-02-23T11:05:13;65.93;;;47.83;;
38208;SDS011;24016;52.102;11.584;2023-02-23T11:08:09;70.80;;;48.22;;
38208;SDS011;24016;52.102;11.584;2023-02-23T11:10:55;65.03;;;46.47;;
38208;SDS011;24016;52.102;11.584;2023-02-23T11:13:34;65.88;;;46.97;;
38208;SDS011;24016;52.102;11.584;2023-02-23T11:16:06;63.97;;;46.45;;
38208;SDS011;24016;52.102;11.584;2023-02-23T11:18:35;63.78;;;45.28;;
38208;SDS011;24016;52.102;11.584;2023-02-23T11:21:01;60.63;;;44.80;;
38208;SDS011;24016;52.102;11.584;2023-02-23T11:23:28;67.10;;;47.28;;
38208;SDS011;24016;52.102;11.584;2023-02-23T11:25:59;65.43;;;46.88;;
38208;SDS011;24016;52.102;11.584;2023-02-23T11:28:33;66.60;;;46.50;;
38208;SDS011;24016;52.102;11.584;2023-02-23T11:31:02;69.65;;;46.15;;
38208;SDS011;24016;52.102;11.584;2023-02-23T11:33:38;68.95;;;47.28;;
38208;SDS011;24016;52.102;11.584;2023-02-23T11:36:14;70.72;;;47.58;;
38208;SDS011;24016;52.102;11.584;2023-02-23T11:38:46;72.75;;;48.03;;
38208;SDS011;24016;52.102;11.584;2023-02-23T11:41:25;72.20;;;49.65;;
38208;SDS011;24016;52.102;11.584;2023-02-23T11:43:51;77.13;;;50.30;;
38208;SDS011;24016;52.102;11.584;2023-02-23T11:46:21;74.88;;;49.90;;
38208;SDS011;24016;52.102;11.584;2023-02-23T11:48:51;75.53;;;48.38;;
38208;SDS011;24016;52.102;11.584;2023-02-23T11:51:37;77.68;;;51.03;;
38208;SDS011;24016;52.102;11.584;2023-02-23T11:54:05;71.07;;;48.70;;
38208;SDS011;24016;52.102;11.584;2023-02-23T11:56:40;72.40;;;48.50;;
38208;SDS011;24016;52.102;11.584;2023-02-23T11:59:15;72.25;;;49.10;;
38208;SDS011;24016;52.102;11.584;2023-02-23T12:01:43;70.32;;;48.03;;
38208;SDS011;24016;52.102;11.584;2023-02-23T12:04:25;66.78;;;46.80;;
38208;SDS011;24016;52.102;11.584;2023-02-23T12:06:55;67.00;;;46.97;;
38208;SDS011;24016;52.102;11.584;2023-02-23T12:09:45;66.80;;;45.07;;
38208;SDS011;24016;52.102;11.584;2023-02-23T12:12:17;67.75;;;46.25;;
38208;SDS011;24016;52.102;11.584;2023-02-23T12:14:48;65.90;;;47.13;;
38208;SDS011;24016;52.102;11.584;2023-02-23T12:17:33;65.38;;;47.15;;
38208;SDS011;24016;52.102;11.584;2023-02-23T12:20:09;63.55;;;45.67;;
38208;SDS011;24016;52.102;11.584;2023-02-23T12:23:14;66.63;;;46.17;;
38208;SDS011;24016;52.102;11.584;2023-02-23T12:25:39;60.95;;;43.47;;
38208;SDS011;24016;52.102;11.584;2023-02-23T12:28:42;67.40;;;45.20;;
38208;SDS011;24016;52.102;11.584;2023-02-23T12:34:23;69.13;;;46.10;;
38208;SDS011;24016;52.102;11.584;2023-02-23T12:36:58;60.67;;;45.53;;
38208;SDS011;24016;52.102;11.584;2023-02-23T12:39:40;64.55;;;46.25;;
38208;SDS011;24016;52.102;11.584;2023-02-23T12:42:15;68.57;;;47.47;;
38208;SDS011;24016;52.102;11.584;2023-02-23T12:45:00;61.33;;;44.60;;
38208;SDS011;24016;52.102;11.584;2023-02-23T12:50:31;63.95;;;45.28;;
38208;SDS011;24016;52.102;11.584;2023-02-23T12:58:31;61.25;;;46.05;;
38208;SDS011;24016;52.102;11.584;2023-02-23T13:01:23;64.15;;;45.03;;
38208;SDS011;24016;52.102;11.584;2023-02-23T13:09:42;63.53;;;46.08;;
38208;SDS011;24016;52.102;11.584;2023-02-23T13:15:07;64.28;;;44.85;;
38208;SDS011;24016;52.102;11.584;2023-02-23T13:20:26;65.93;;;46.40;;
38208;SDS011;24016;52.102;11.584;2023-02-23T13:25:39;65.97;;;48.22;;
38208;SDS011;24016;52.102;11.584;2023-02-23T13:28:13;62.30;;;45.57;;
38208;SDS011;24016;52.102;11.584;2023-02-23T13:30:44;64.10;;;45.05;;
38208;SDS011;24016;52.102;11.584;2023-02-23T13:33:22;65.45;;;45.78;;
38208;SDS011;24016;52.102;11.584;2023-02-23T13:35:51;64.00;;;44.13;;
38208;SDS011;24016;52.102;11.584;2023-02-23T13:38:29;63.28;;;43.67;;
38208;SDS011;24016;52.102;11.584;2023-02-23T13:44:02;64.75;;;45.05;;
38208;SDS011;24016;52.102;11.584;2023-02-23T13:46:59;61.70;;;43.65;;
38208;SDS011;24016;52.102;11.584;2023-02-23T13:49:49;56.60;;;42.85;;
38208;SDS011;24016;52.102;11.584;2023-02-23T13:52:32;61.60;;;45.10;;
38208;SDS011;24016;52.102;11.584;2023-02-23T13:55:48;61.58;;;45.15;;
38208;SDS011;24016;52.102;11.584;2023-02-23T13:58:11;68.60;;;45.95;;
38208;SDS011;24016;52.102;11.584;2023-02-23T14:00:43;64.05;;;45.00;;
38208;SDS011;24016;52.102;11.584;2023-02-23T14:03:24;69.65;;;46.33;;
38208;SDS011;24016;52.102;11.584;2023-02-23T14:05:54;65.43;;;45.88;;
38208;SDS011;24016;52.102;11.584;2023-02-23T14:08:36;69.95;;;47.10;;
38208;SDS011;24016;52.102;11.584;2023-02-23T14:11:04;65.88;;;45.35;;
38208;SDS011;24016;52.102;11.584;2023-02-23T14:13:34;64.82;;;44.95;;
38208;SDS011;24016;52.102;11.584;2023-02-23T14:16:08;67.25;;;44.88;;
38208;SDS011;24016;52.102;11.584;2023-02-23T14:18:50;64.05;;;42.65;;
38208;SDS011;24016;52.102;11.584;2023-02-23T14:24:01;62.50;;;43.40;;
38208;SDS011;24016;52.102;11.584;2023-02-23T14:27:04;61.42;;;42.85;;
38208;SDS011;24016;52.102;11.584;2023-02-23T14:32:39;61.88;;;43.08;;
38208;SDS011;24016;52.102;11.584;2023-02-23T14:37:58;63.47;;;45.42;;
38208;SDS011;24016;52.102;11.584;2023-02-23T14:40:29;63.17;;;44.25;;
38208;SDS011;24016;52.102;11.584;2023-02-23T14:42:58;62.55;;;44.38;;
38208;SDS011;24016;52.102;11.584;2023-02-23T14:45:26;65.03;;;46.00;;
38208;SDS011;24016;52.102;11.584;2023-02-23T14:48:08;68.60;;;47.22;;
38208;SDS011;24016;52.102;11.584;2023-02-23T14:50:36;70.22;;;46.35;;
38208;SDS011;24016;52.102;11.584;2023-02-23T14:53:03;69.10;;;46.10;;
38208;SDS011;24016;52.102;11.584;2023-02-23T14:55:34;74.55;;;48.33;;
38208;SDS011;24016;52.102;11.584;2023-02-23T14:58:20;72.00;;;47.42;;
38208;SDS011;24016;52.102;11.584;2023-02-23T15:00:47;74.30;;;48.72;;
38208;SDS011;24016;52.102;11.584;2023-02-23T15:03:13;75.25;;;50.55;;
38208;SDS011;24016;52.102;11.584;2023-02-23T15:05:46;82.95;;;48.83;;
38208;SDS011;24016;52.102;11.584;2023-02-23T15:08:19;71.40;;;48.17;;
38208;SDS011;24016;52.102;11.584;2023-02-23T15:10:48;73.40;;;47.10;;
38208;SDS011;24016;52.102;11.584;2023-02-23T15:15:52;72.65;;;46.10;;
38208;SDS011;24016;52.102;11.584;2023-02-23T15:24:09;69.00;;;43.38;;
38208;SDS011;24016;52.102;11.584;2023-02-23T15:26:37;74.15;;;44.88;;
38208;SDS011;24016;52.102;11.584;2023-02-23T15:29:14;68.93;;;44.97;;
38208;SDS011;24016;52.102;11.584;2023-02-23T15:31:43;60.30;;;41.03;;
38208;SDS011;24016;52.102;11.584;2023-02-23T15:34:20;59.83;;;39.13;;
38208;SDS011;24016;52.102;11.584;2023-02-23T15:37:10;60.10;;;39.60;;
38208;SDS011;24016;52.102;11.584;2023-02-23T15:42:25;62.88;;;39.35;;
38208;SDS011;24016;52.102;11.584;2023-02-23T15:44:57;63.15;;;38.97;;
38208;SDS011;24016;52.102;11.584;2023-02-23T15:47:27;69.63;;;40.30;;
38208;SDS011;24016;52.102;11.584;2023-02-23T15:50:20;69.22;;;41.58;;
38208;SDS011;24016;52.102;11.584;2023-02-23T15:52:51;78.32;;;44.92;;
38208;SDS011;24016;52.102;11.584;2023-02-23T15:55:29;77.40;;;42.92;;
38208;SDS011;24016;52.102;11.584;2023-02-23T15:57:59;92.20;;;46.25;;
38208;SDS011;24016;52.102;11.584;2023-02-23T16:00:38;82.00;;;46.45;;
38208;SDS011;24016;52.102;11.584;2023-02-23T16:03:07;79.65;;;45.08;;
38208;SDS011;24016;52.102;11.584;2023-02-23T16:05:58;78.40;;;46.00;;
38208;SDS011;24016;52.102;11.584;2023-02-23T16:08:27;81.18;;;46.47;;
38208;SDS011;24016;52.102;11.584;2023-02-23T16:10:59;83.93;;;46.58;;
38208;SDS011;24016;52.102;11.584;2023-02-23T16:13:31;74.97;;;44.90;;
38208;SDS011;24016;52.102;11.584;2023-02-23T16:15:56;75.25;;;45.22;;
38208;SDS011;24016;52.102;11.584;2023-02-23T16:18:33;73.38;;;43.25;;
38208;SDS011;24016;52.102;11.584;2023-02-23T16:21:03;82.17;;;44.40;;